createdAt,value
2022-08-30T00:05:23.185Z,3.68
2022-08-30T00:15:00.233Z,3.69
2022-08-30T00:24:37.138Z,3.68
2022-08-30T00:34:14.459Z,3.68
2022-08-30T00:43:51.526Z,3.68
2022-08-30T00:53:28.392Z,3.68
2022-08-30T01:03:05.478Z,3.68
2022-08-30T01:12:42.297Z,3.69
2022-08-30T01:22:19.188Z,3.68
2022-08-30T01:31:56.155Z,3.68
2022-08-30T01:41:33.313Z,3.68
2022-08-30T01:51:10.376Z,3.68
2022-08-30T02:00:47.056Z,3.68
2022-08-30T02:10:24.281Z,3.68
2022-08-30T02:20:01.446Z,3.67
2022-08-30T02:29:38.190Z,3.68
2022-08-30T02:39:15.057Z,3.68
2022-08-30T02:48:52.466Z,3.67
2022-08-30T02:58:29.616Z,3.68
2022-08-30T03:08:06.494Z,3.67
2022-08-30T03:17:43.590Z,3.67
2022-08-30T03:27:20.655Z,3.68
2022-08-30T03:36:57.622Z,3.68
2022-08-30T03:46:37.416Z,3.67
2022-08-30T03:56:10.908Z,3.67
2022-08-30T04:05:48.031Z,3.67
2022-08-30T04:15:25.210Z,3.67
2022-08-30T04:34:39.444Z,3.67
2022-08-30T04:44:16.865Z,3.67
2022-08-30T04:53:53.380Z,3.67
2022-08-30T05:03:30.572Z,3.67
2022-08-30T05:13:08.296Z,3.67
2022-08-30T05:22:45.786Z,3.67
2022-08-30T05:32:23.532Z,3.67
2022-08-30T05:42:01.137Z,3.67
2022-08-30T05:51:41.212Z,3.67
2022-08-30T06:01:16.578Z,3.67
2022-08-30T06:10:54.199Z,3.68
2022-08-30T06:20:31.950Z,3.67
2022-08-30T06:30:09.812Z,3.67
2022-08-30T06:39:47.013Z,3.67
2022-08-30T06:49:25.101Z,3.68
2022-08-30T06:59:02.760Z,3.68
2022-08-30T07:08:40.588Z,3.68
2022-08-30T07:18:18.471Z,3.68
2022-08-30T07:27:56.461Z,3.68
2022-08-30T07:37:34.546Z,3.68
2022-08-30T07:47:12.706Z,3.68
2022-08-30T07:56:50.851Z,3.68
2022-08-30T08:06:34.637Z,3.68
2022-08-30T08:16:08.142Z,3.68
2022-08-30T08:25:46.284Z,3.69
2022-08-30T08:35:24.895Z,3.69
2022-08-30T08:45:04.653Z,3.7
2022-08-30T08:54:41.522Z,3.69
2022-08-30T09:04:20.355Z,3.7
2022-08-30T09:13:58.692Z,3.7
2022-08-30T09:23:36.724Z,3.7
2022-08-30T09:33:15.257Z,3.7
2022-08-30T09:42:53.791Z,3.7
2022-08-30T09:52:32.772Z,3.71
2022-08-30T10:02:25.873Z,3.76
2022-08-30T10:12:18.070Z,3.77
2022-08-30T10:22:03.457Z,3.79
2022-08-30T10:41:18.163Z,3.81
2022-08-30T11:00:40.976Z,3.83
2022-08-30T11:10:22.885Z,3.83
2022-08-30T11:29:38.828Z,3.81
2022-08-30T11:39:02.112Z,3.78
2022-08-30T11:58:43.825Z,3.85
2022-08-30T12:27:42.413Z,3.81
2022-08-30T12:37:08.080Z,3.78
2022-08-30T12:46:34.010Z,3.84
2022-08-30T12:56:35.166Z,3.8
2022-08-30T13:15:16.230Z,3.81
2022-08-30T13:25:29.524Z,3.87
2022-08-30T13:34:44.342Z,3.81
2022-08-30T13:44:11.560Z,3.82
2022-08-30T13:54:03.839Z,3.81
2022-08-30T14:22:52.472Z,3.82
2022-08-30T14:32:24.235Z,3.83
2022-08-30T14:42:21.559Z,3.88
2022-08-30T14:52:02.069Z,3.89
2022-08-30T15:01:42.383Z,3.88
2022-08-30T15:11:21.743Z,3.88
2022-08-30T15:30:37.162Z,3.89
2022-08-30T15:59:12.014Z,3.85
2022-08-30T16:08:46.627Z,3.84
2022-08-30T16:18:22.179Z,3.85
2022-08-30T16:27:58.050Z,3.84
2022-08-30T16:37:34.092Z,3.84
2022-08-30T16:47:04.488Z,3.84
2022-08-30T16:56:40.961Z,3.84
2022-08-30T17:06:17.886Z,3.84
2022-08-30T17:15:54.338Z,3.84
2022-08-30T17:25:33.975Z,3.84
2022-08-30T17:35:07.438Z,3.84
2022-08-30T17:54:20.737Z,3.84
2022-08-30T18:04:01.545Z,3.84
2022-08-30T18:13:34.736Z,3.84
2022-08-30T18:23:11.611Z,3.84
2022-08-30T18:32:48.516Z,3.83
2022-08-30T18:42:25.104Z,3.84
2022-08-30T18:52:02.340Z,3.83
2022-08-30T19:01:39.196Z,3.83
2022-08-30T19:11:15.894Z,3.83
2022-08-30T19:20:52.130Z,3.83
2022-08-30T19:30:30.137Z,3.83
2022-08-30T19:40:05.650Z,3.83
2022-08-30T19:49:42.578Z,3.83
2022-08-30T19:59:19.219Z,3.83
2022-08-30T20:08:56.689Z,3.83
2022-08-30T20:18:33.029Z,3.83
2022-08-30T20:28:09.939Z,3.83
2022-08-30T20:37:46.526Z,3.83
2022-08-30T20:47:23.789Z,3.83
2022-08-30T20:57:01.319Z,3.83
2022-08-30T21:06:37.867Z,3.83
2022-08-30T21:16:14.780Z,3.83
2022-08-30T21:25:51.674Z,3.83
2022-08-30T21:35:28.863Z,3.83
2022-08-30T21:45:05.827Z,3.83
2022-08-30T21:54:42.773Z,3.83
2022-08-30T22:04:24.378Z,3.83
2022-08-30T22:13:57.539Z,3.83
2022-08-30T22:23:34.610Z,3.83
2022-08-30T22:33:11.186Z,3.82
2022-08-30T22:42:48.591Z,3.82
2022-08-30T22:52:25.538Z,3.82
2022-08-30T23:02:02.472Z,3.81
2022-08-30T23:11:39.312Z,3.82
2022-08-30T23:21:16.495Z,3.82
2022-08-30T23:40:30.852Z,3.81
2022-08-30T23:50:07.915Z,3.81
2022-08-30T23:59:45.062Z,3.81
